Avalon, CA

1:23 PM PDT on October 23, 2014 (GMT -0700)
Catalina | Change Station
CLOSE
Current Station
Airport
Location: Avalon,
Elevation: 1601 ft
Nearby Weather Stations

Elev 1601 ft 33.40 °N, 118.42 °W | Updated 32 minutes ago

Partly Cloudy
Partly Cloudy
79 °F
Feels Like 79 °F
N
5
Wind Variable Wind from Variable

Today
High -- | Low -- °F
--% Chance of Precip.
Yesterday
High -- | Low -- °F
Precip. -- in
7:04 AM 6:10 PM
Waning Crescent, 0% visible
Pressure 29.94 in
Visibility 10.0 miles
Clouds Clear
Dew Point 49 °F
Humidity 35%
Rainfall 0.00 in
Snow Depth Not available.
UV 6 out of 12
Pollen 3.70 out of 12
Air Quality Not available.
Flu Activity Sporadic
METAR KAVX 231951Z AUTO VRB04KT 10SM CLR 26/09 A3003 RMK AO2 SLP139 T02610094

More Conditions Fewer Conditions

Pressure 29.94 in
Visibility 10.0 miles
Clouds Clear
Dew Point 49 °F
Humidity 35%
Rainfall 0.00 in
Snow Depth Not available.
UV 6 out of 12
Pollen 3.70 out of 12
Air Quality Not available.
Flu Activity Sporadic
METAR KAVX 231951Z AUTO VRB04KT 10SM CLR 26/09 A3003 RMK AO2 SLP139 T02610094

More Conditions Fewer Conditions

10-Day Weather Forecast

Almanac

Astronomy

Oct. 23, 2014 Rise Set
Actual Time 7:04 AM PDT 6:10 PM PDT
Civil Twilight 6:39 AM PDT 6:35 PM PDT
Nautical Twilight 6:09 AM PDT 7:04 PM PDT
Astronomical Twilight 5:41 AM PDT 7:33 PM PDT
Moon 6:49 AM PDT 6:15 PM PDT
Length of Visible Light 11h 56m
Length of Day
11h 06m
Tomorrow will be 1m 55s shorter.
Waning Crescent, 0% of the Moon is Illuminated
Today
Waning Crescent
Oct 23
New
Oct 30
First Quarter
Nov 6
Full
Nov 14
Last Quarter

Today's Extremes

State Highs State Lows

Community

WunderPhotos

Upload Photos

1,764,361 photos uploaded!

WunderBlogs® & News

By Dr. Jeff Masters
Director of Meteorology, Weather Underground
By Kari Strenfel
Meteorologist, Weather Underground
By Christopher C. Burt
Weather Historian, Weather Underground
October 23, 2014
October 23, 2014
October 23, 2014

Nearby

Snow Depth

Station Depth Elevation
Virginia Lakes Ridge 0 in 9200 ft
Leavitt Lake 0 in 9400 ft
Leavitt Meadows 0 in 7200 ft
Summit Meadow 1 in 9122 ft
Monitor Pass 1 in 8350 ft

Earthquake Activity

City Distance Mag. Time & Date
Corona, California 52 miles 2.5 1:09 PM PDT
2014-10-23
Solvang, California 129 miles 2.6 5:35 PM PDT
2014-10-22
Minimum magnitude displayed is 2.5.

Coastal Water Temperatures

Place Temperature
Santa Monica Pier 69.1 °F
Los Angeles, CA 69.1 °F
La Jolla, CA 71.1 °F

Nearby Weather Stations